createdAt,value
2019-04-01T00:02:07.826Z,19.30
2019-04-01T00:04:39.618Z,26.65
2019-04-01T00:07:11.476Z,23.30
2019-04-01T00:09:41.678Z,24.75
2019-04-01T00:12:11.918Z,24.82
2019-04-01T00:14:42.521Z,23.95
2019-04-01T00:17:12.835Z,28.30
2019-04-01T00:19:43.048Z,19.00
2019-04-01T00:22:14.899Z,26.15
2019-04-01T00:24:45.121Z,27.10
2019-04-01T00:27:15.357Z,27.65
2019-04-01T00:29:45.584Z,25.97
2019-04-01T00:32:15.792Z,28.73
2019-04-01T00:34:47.572Z,26.27
2019-04-01T00:37:17.782Z,27.20
2019-04-01T00:39:48.025Z,23.92
2019-04-01T00:42:25.606Z,26.80
2019-04-01T00:44:55.910Z,27.20
2019-04-01T00:47:26.107Z,29.40
2019-04-01T00:49:56.332Z,26.62
2019-04-01T00:52:26.551Z,30.08
2019-04-01T00:54:56.758Z,30.00
2019-04-01T00:57:27.062Z,29.87
2019-04-01T00:59:57.259Z,24.98
2019-04-01T01:02:27.576Z,28.52
2019-04-01T01:04:58.100Z,29.67
2019-04-01T01:07:28.901Z,29.32
2019-04-01T01:09:59.154Z,32.23
2019-04-01T01:12:29.391Z,32.58
2019-04-01T01:14:59.695Z,33.33
2019-04-01T01:17:30.038Z,31.45
2019-04-01T01:20:01.797Z,32.13
2019-04-01T01:22:32.021Z,31.77
2019-04-01T01:25:02.227Z,29.70
2019-04-01T01:27:32.448Z,32.17
2019-04-01T01:30:02.887Z,33.45
2019-04-01T01:32:33.094Z,32.90
2019-04-01T01:35:03.304Z,32.45
2019-04-01T01:37:33.535Z,32.65
2019-04-01T01:40:04.880Z,31.45
2019-04-01T01:42:35.109Z,31.35
2019-04-01T01:45:05.976Z,32.88
2019-04-01T01:47:37.793Z,29.52
2019-04-01T01:50:08.097Z,27.98
2019-04-01T01:52:38.320Z,28.35
2019-04-01T01:55:08.514Z,29.75
2019-04-01T01:57:38.948Z,27.82
2019-04-01T02:00:10.879Z,29.98
2019-04-01T02:02:41.178Z,30.52
2019-04-01T02:05:11.393Z,29.75
2019-04-01T02:07:43.213Z,30.02
2019-04-01T02:10:13.414Z,30.88
2019-04-01T02:12:43.639Z,31.20
2019-04-01T02:15:13.857Z,33.40
2019-04-01T02:17:44.082Z,33.10
2019-04-01T02:20:14.306Z,33.25
2019-04-01T02:22:44.918Z,34.00
2019-04-01T02:25:15.135Z,33.33
2019-04-01T02:27:45.334Z,34.00
2019-04-01T02:30:15.584Z,34.85
2019-04-01T02:32:47.427Z,34.95
2019-04-01T02:35:17.760Z,35.05
2019-04-01T02:37:49.828Z,36.15
2019-04-01T02:40:22.116Z,36.10
2019-04-01T02:42:52.271Z,37.42
2019-04-01T02:45:22.598Z,38.13
2019-04-01T02:47:54.458Z,38.67
2019-04-01T02:50:24.737Z,36.90
2019-04-01T02:52:55.221Z,39.18
2019-04-01T02:55:25.453Z,39.10
2019-04-01T02:57:55.876Z,40.38
2019-04-01T03:00:26.142Z,39.15
2019-04-01T03:02:56.425Z,42.70
2019-04-01T03:05:26.674Z,40.52
2019-04-01T03:07:57.030Z,39.63
2019-04-01T03:10:27.286Z,40.75
2019-04-01T03:12:57.484Z,38.35
2019-04-01T03:15:27.714Z,40.67
2019-04-01T03:17:58.141Z,40.90
2019-04-01T03:20:28.344Z,40.28
2019-04-01T03:22:58.558Z,38.88
2019-04-01T03:25:30.437Z,41.58
2019-04-01T03:28:00.908Z,40.12
2019-04-01T03:30:31.262Z,40.48
2019-04-01T03:33:03.139Z,41.90
2019-04-01T03:35:35.033Z,40.20
2019-04-01T03:38:05.314Z,39.42
2019-04-01T03:40:35.591Z,40.12
2019-04-01T03:43:05.820Z,40.63
2019-04-01T03:45:36.067Z,38.53
2019-04-01T03:48:06.391Z,39.92
2019-04-01T03:50:39.166Z,40.75
2019-04-01T03:53:09.429Z,38.35
2019-04-01T03:55:39.761Z,38.08
2019-04-01T03:58:10.037Z,41.05
2019-04-01T04:00:40.248Z,36.55
2019-04-01T04:03:10.617Z,37.50
2019-04-01T04:05:41.000Z,39.60
2019-04-01T04:08:11.274Z,38.17
2019-04-01T04:10:41.629Z,37.48
2019-04-01T04:13:11.967Z,37.75
2019-04-01T04:15:42.443Z,38.85
2019-04-01T04:18:15.121Z,39.40
2019-04-01T04:20:45.315Z,39.95
2019-04-01T04:23:15.544Z,38.35
2019-04-01T04:25:47.349Z,38.23
2019-04-01T04:28:18.002Z,36.65
2019-04-01T04:30:48.288Z,37.03
2019-04-01T04:33:18.585Z,35.85
2019-04-01T04:35:48.988Z,36.80
2019-04-01T04:38:21.572Z,36.98
2019-04-01T04:40:51.927Z,36.05
2019-04-01T04:43:22.148Z,36.17
2019-04-01T04:45:52.467Z,36.50
2019-04-01T04:48:22.757Z,38.70
2019-04-01T04:50:53.147Z,42.95
2019-04-01T04:53:23.390Z,37.83
2019-04-01T04:55:53.689Z,37.58
2019-04-01T04:58:23.988Z,36.08
2019-04-01T05:00:54.247Z,37.05
2019-04-01T05:03:24.656Z,35.50
2019-04-01T05:05:54.972Z,34.60
2019-04-01T05:08:25.248Z,34.00
2019-04-01T05:10:57.092Z,34.90
2019-04-01T05:13:27.420Z,34.15
2019-04-01T05:15:57.765Z,34.83
2019-04-01T05:18:28.903Z,34.25
2019-04-01T05:20:59.965Z,33.98
2019-04-01T05:23:30.187Z,30.72
2019-04-01T05:26:00.421Z,30.30
2019-04-01T05:28:30.652Z,30.30
2019-04-01T05:31:00.938Z,31.90
2019-04-01T05:33:31.210Z,31.02
2019-04-01T05:36:02.286Z,29.05
2019-04-01T05:38:32.784Z,28.35
2019-04-01T05:41:03.286Z,27.73
2019-04-01T05:43:33.575Z,26.97
2019-04-01T05:46:03.823Z,25.60
2019-04-01T05:48:34.138Z,26.77
2019-04-01T05:51:04.364Z,26.15
2019-04-01T05:53:34.636Z,26.05
2019-04-01T05:56:04.827Z,26.02
2019-04-01T05:58:35.070Z,25.90
2019-04-01T06:01:08.408Z,26.77
2019-04-01T06:03:38.638Z,24.37
2019-04-01T06:06:08.914Z,24.12
2019-04-01T06:08:39.327Z,23.75
2019-04-01T06:11:09.525Z,25.37
2019-04-01T06:13:39.741Z,23.27
2019-04-01T06:16:11.609Z,24.23
2019-04-01T06:18:41.809Z,23.12
2019-04-01T06:21:12.046Z,22.85
2019-04-01T06:23:42.254Z,23.65
2019-04-01T06:26:12.469Z,23.15
2019-04-01T06:28:42.792Z,23.35
2019-04-01T06:31:13.024Z,23.50
2019-04-01T06:33:43.221Z,22.85
2019-04-01T06:36:13.633Z,23.20
2019-04-01T06:38:45.504Z,23.22
2019-04-01T06:41:15.837Z,22.30
2019-04-01T06:43:46.047Z,22.40
2019-04-01T06:46:17.843Z,23.12
2019-04-01T06:48:48.132Z,24.40
2019-04-01T06:51:18.327Z,24.12
2019-04-01T06:53:48.647Z,24.47
2019-04-01T06:56:18.872Z,24.25
2019-04-01T06:58:49.160Z,22.85
2019-04-01T07:01:19.371Z,28.02
2019-04-01T07:03:49.595Z,23.60
2019-04-01T07:06:19.903Z,22.25
2019-04-01T07:08:50.162Z,22.50
2019-04-01T07:11:20.484Z,23.80
2019-04-01T07:13:52.357Z,23.32
2019-04-01T07:16:22.656Z,22.50
2019-04-01T07:18:52.850Z,31.35
2019-04-01T07:21:23.274Z,24.18
2019-04-01T07:23:53.492Z,23.32
2019-04-01T07:26:23.723Z,22.30
2019-04-01T07:28:54.081Z,22.87
2019-04-01T07:31:24.361Z,22.42
2019-04-01T07:33:54.755Z,22.37
2019-04-01T07:36:25.008Z,21.02
2019-04-01T07:38:55.188Z,24.92
2019-04-01T07:41:25.466Z,22.22
2019-04-01T07:43:55.745Z,23.65
2019-04-01T07:46:26.003Z,22.60
2019-04-01T07:48:56.395Z,22.73
2019-04-01T07:51:26.773Z,22.30
2019-04-01T07:53:56.975Z,22.90
2019-04-01T07:56:27.235Z,23.22
2019-04-01T07:58:57.478Z,22.13
2019-04-01T08:01:27.681Z,22.90
2019-04-01T08:03:58.268Z,23.65
2019-04-01T08:06:28.534Z,24.80
2019-04-01T08:08:58.788Z,24.98
2019-04-01T08:11:30.641Z,23.10
2019-04-01T08:14:00.970Z,23.47
2019-04-01T08:16:31.177Z,23.90
2019-04-01T08:19:01.407Z,24.10
2019-04-01T08:21:31.699Z,24.55
2019-04-01T08:24:01.900Z,23.30
2019-04-01T08:26:32.250Z,24.05
2019-04-01T08:29:04.122Z,29.55
2019-04-01T08:31:34.474Z,23.80
2019-04-01T08:34:04.740Z,23.05
2019-04-01T08:36:35.072Z,26.48
2019-04-01T08:39:08.408Z,31.55
2019-04-01T08:41:38.728Z,23.35
2019-04-01T08:44:08.985Z,23.57
2019-04-01T08:46:39.252Z,24.43
2019-04-01T08:49:09.446Z,23.67
2019-04-01T08:51:39.670Z,22.82
2019-04-01T08:54:11.484Z,24.45
2019-04-01T08:56:41.763Z,23.57
2019-04-01T08:59:12.207Z,24.92
2019-04-01T09:01:42.425Z,25.57
2019-04-01T09:04:12.735Z,26.20
2019-04-01T09:06:43.000Z,25.00
2019-04-01T09:09:13.329Z,24.47
2019-04-01T09:11:45.103Z,24.50
2019-04-01T09:14:15.337Z,23.73
2019-04-01T09:16:45.708Z,23.50
2019-04-01T09:19:15.947Z,24.63
2019-04-01T09:21:46.158Z,24.12
2019-04-01T09:24:16.451Z,23.85
2019-04-01T09:26:47.632Z,24.72
2019-04-01T09:29:17.843Z,23.30
2019-04-01T09:31:48.065Z,23.85
2019-04-01T09:34:19.860Z,22.60
2019-04-01T09:36:50.171Z,22.30
2019-04-01T09:39:20.499Z,23.75
2019-04-01T09:41:51.705Z,23.40
2019-04-01T09:44:30.452Z,24.95
2019-04-01T09:46:53.861Z,24.47
2019-04-01T09:49:24.082Z,30.32
2019-04-01T09:51:54.286Z,37.13
2019-04-01T09:54:26.263Z,25.20
2019-04-01T09:56:56.670Z,25.30
2019-04-01T09:59:27.254Z,25.08
2019-04-01T10:01:57.529Z,25.45
2019-04-01T10:04:27.741Z,24.98
2019-04-01T10:06:57.935Z,24.25
2019-04-01T10:09:28.170Z,24.52
2019-04-01T10:11:58.358Z,24.25
2019-04-01T10:14:28.869Z,24.05
2019-04-01T10:16:59.131Z,24.60
2019-04-01T10:19:29.345Z,25.40
2019-04-01T10:21:59.568Z,24.52
2019-04-01T10:24:29.792Z,25.92
2019-04-01T10:27:01.599Z,25.37
2019-04-01T10:29:31.943Z,25.43
2019-04-01T10:32:03.721Z,25.45
2019-04-01T10:34:34.379Z,25.32
2019-04-01T10:37:04.717Z,25.35
2019-04-01T10:39:34.958Z,26.20
2019-04-01T10:42:05.286Z,24.30
2019-04-01T10:44:35.501Z,24.87
2019-04-01T10:47:05.889Z,24.25
2019-04-01T10:49:37.330Z,24.57
2019-04-01T10:52:08.116Z,24.23
2019-04-01T10:54:38.692Z,23.05
2019-04-01T10:57:09.064Z,24.35
2019-04-01T10:59:39.284Z,23.27
2019-04-01T11:02:09.961Z,23.05
2019-04-01T11:04:40.451Z,23.52
2019-04-01T11:07:10.747Z,23.02
2019-04-01T11:09:41.112Z,26.55
2019-04-01T11:12:12.887Z,21.85
2019-04-01T11:14:44.799Z,23.35
2019-04-01T11:17:15.399Z,22.67
2019-04-01T11:19:46.006Z,20.27
2019-04-01T11:22:16.226Z,21.00
2019-04-01T11:24:46.720Z,20.97
2019-04-01T11:27:17.073Z,19.52
2019-04-01T11:29:47.278Z,20.10
2019-04-01T11:32:17.604Z,20.77
2019-04-01T11:34:47.902Z,20.30
2019-04-01T11:37:18.252Z,19.42
2019-04-01T11:39:49.443Z,20.32
2019-04-01T11:42:19.858Z,20.50
2019-04-01T11:44:50.196Z,20.95
2019-04-01T11:47:22.232Z,22.05
2019-04-01T11:49:52.537Z,20.12
2019-04-01T11:52:22.839Z,20.82
2019-04-01T11:54:53.231Z,23.02
2019-04-01T11:57:23.559Z,22.13
2019-04-01T11:59:53.801Z,22.07
2019-04-01T12:02:25.577Z,21.27
2019-04-01T12:04:55.972Z,22.50
2019-04-01T12:07:26.563Z,22.60
2019-04-01T12:09:57.605Z,22.80
2019-04-01T12:12:27.944Z,23.02
2019-04-01T12:14:58.133Z,20.60
2019-04-01T12:17:28.308Z,21.00
2019-04-01T12:20:00.283Z,23.27
2019-04-01T12:22:30.691Z,21.73
2019-04-01T12:25:00.896Z,21.42
2019-04-01T12:27:31.959Z,20.50
2019-04-01T12:30:02.240Z,22.05
2019-04-01T12:32:32.444Z,22.05
2019-04-01T12:35:02.679Z,23.60
2019-04-01T12:37:32.866Z,22.48
2019-04-01T12:40:03.573Z,23.57
2019-04-01T12:42:33.881Z,21.57
2019-04-01T12:45:07.792Z,23.98
2019-04-01T12:47:42.966Z,23.95
2019-04-01T12:50:11.506Z,21.85
2019-04-01T12:52:43.263Z,17.23
2019-04-01T12:55:13.493Z,15.78
2019-04-01T12:57:44.049Z,15.23
2019-04-01T13:00:15.973Z,14.83
2019-04-01T13:02:46.213Z,15.40
2019-04-01T13:05:16.480Z,15.45
2019-04-01T13:07:46.784Z,15.60
2019-04-01T13:10:16.972Z,14.68
2019-04-01T13:12:48.759Z,16.52
2019-04-01T13:15:18.975Z,15.20
2019-04-01T13:17:50.023Z,14.95
2019-04-01T13:20:20.356Z,14.75
2019-04-01T13:22:50.634Z,15.05
2019-04-01T13:25:20.846Z,14.03
2019-04-01T13:27:51.095Z,14.55
2019-04-01T13:30:24.270Z,13.65
2019-04-01T13:32:54.825Z,14.87
2019-04-01T13:35:25.076Z,13.65
2019-04-01T13:37:58.078Z,13.75
2019-04-01T13:40:28.366Z,13.68
2019-04-01T13:42:58.757Z,13.50
2019-04-01T13:45:31.609Z,16.80
2019-04-01T13:48:00.908Z,13.75
2019-04-01T13:50:31.755Z,13.10
2019-04-01T13:53:02.921Z,13.00
2019-04-01T13:55:34.689Z,10.63
2019-04-01T13:58:04.930Z,13.30
2019-04-01T14:00:35.134Z,13.90
2019-04-01T14:03:05.423Z,13.38
2019-04-01T14:05:35.681Z,12.13
2019-04-01T14:08:06.126Z,11.75
2019-04-01T14:10:36.451Z,12.75
2019-04-01T14:13:06.717Z,12.47
2019-04-01T14:15:36.928Z,11.68
2019-04-01T14:18:07.148Z,11.68
2019-04-01T14:20:37.407Z,11.45
2019-04-01T14:23:07.718Z,10.98
2019-04-01T14:25:38.052Z,11.45
2019-04-01T14:28:09.891Z,11.57
2019-04-01T14:30:40.450Z,11.18
2019-04-01T14:33:10.679Z,10.40
2019-04-01T14:35:40.941Z,11.88
2019-04-01T14:38:11.164Z,10.32
2019-04-01T14:40:43.022Z,11.25
2019-04-01T14:43:13.445Z,10.90
2019-04-01T14:45:43.696Z,11.40
2019-04-01T14:48:13.953Z,12.10
2019-04-01T14:50:44.154Z,11.30
2019-04-01T14:53:14.389Z,11.08
2019-04-01T14:55:46.297Z,12.15
2019-04-01T14:58:16.537Z,10.53
2019-04-01T15:00:46.750Z,10.48
2019-04-01T15:03:18.589Z,11.25
2019-04-01T15:05:49.156Z,9.88
2019-04-01T15:08:19.704Z,10.18
2019-04-01T15:10:50.010Z,9.63
2019-04-01T15:13:20.442Z,9.98
2019-04-01T15:15:50.640Z,10.32
2019-04-01T15:18:20.831Z,9.65
2019-04-01T15:20:51.071Z,10.82
2019-04-01T15:23:24.800Z,10.15
2019-04-01T15:25:54.580Z,11.03
2019-04-01T15:28:25.034Z,9.90
2019-04-01T15:30:55.666Z,10.63
2019-04-01T15:33:26.733Z,10.80
2019-04-01T15:35:56.956Z,10.10
2019-04-01T15:38:27.248Z,10.98
2019-04-01T15:40:58.337Z,10.28
2019-04-01T15:43:28.790Z,9.95
2019-04-01T15:45:59.063Z,11.95
2019-04-01T15:48:29.441Z,10.25
2019-04-01T15:51:01.204Z,9.70
2019-04-01T15:53:31.403Z,9.08
2019-04-01T15:56:01.643Z,9.60
2019-04-01T15:58:33.480Z,9.93
2019-04-01T16:01:04.205Z,9.40
2019-04-01T16:03:34.401Z,9.20
2019-04-01T16:06:07.456Z,9.15
2019-04-01T16:08:36.665Z,9.03
2019-04-01T16:11:06.870Z,8.60
2019-04-01T16:13:38.792Z,8.93
2019-04-01T16:16:09.013Z,7.72
2019-04-01T16:18:39.320Z,8.13
2019-04-01T16:21:09.571Z,8.10
2019-04-01T16:23:39.763Z,7.22
2019-04-01T16:26:10.078Z,7.53
2019-04-01T16:28:40.344Z,6.83
2019-04-01T16:31:12.179Z,7.15
2019-04-01T16:33:43.934Z,7.17
2019-04-01T16:36:14.168Z,6.80
2019-04-01T16:38:44.464Z,7.00
2019-04-01T16:41:14.891Z,6.55
2019-04-01T16:43:47.713Z,6.90
2019-04-01T16:46:17.906Z,6.83
2019-04-01T16:48:48.150Z,6.85
2019-04-01T16:51:18.686Z,5.80
2019-04-01T16:53:48.987Z,6.28
2019-04-01T16:56:19.170Z,6.35
2019-04-01T16:58:49.422Z,6.50
2019-04-01T17:01:19.700Z,5.92
2019-04-01T17:03:49.890Z,5.87
2019-04-01T17:06:20.146Z,6.28
2019-04-01T17:08:51.919Z,6.40
2019-04-01T17:11:23.686Z,6.53
2019-04-01T17:13:55.535Z,6.95
2019-04-01T17:16:25.989Z,5.90
2019-04-01T17:18:57.671Z,5.75
2019-04-01T17:21:28.188Z,5.80
2019-04-01T17:23:59.965Z,5.50
2019-04-01T17:26:30.211Z,5.72
2019-04-01T17:29:00.531Z,5.60
2019-04-01T17:31:30.751Z,5.35
2019-04-01T17:34:00.991Z,5.53
2019-04-01T17:36:31.194Z,5.60
2019-04-01T17:39:01.412Z,6.00
2019-04-01T17:41:33.294Z,6.87
2019-04-01T17:44:03.497Z,5.95
2019-04-01T17:46:33.684Z,6.20
2019-04-01T17:49:03.945Z,5.90
2019-04-01T17:51:34.201Z,5.17
2019-04-01T17:54:04.428Z,5.78
2019-04-01T17:56:34.677Z,6.10
2019-04-01T17:59:04.971Z,4.97
2019-04-01T18:01:35.375Z,6.03
2019-04-01T18:04:05.631Z,6.12
2019-04-01T18:06:35.862Z,6.00
2019-04-01T18:09:07.761Z,6.45
2019-04-01T18:11:37.956Z,6.25
2019-04-01T18:14:08.273Z,5.72
2019-04-01T18:16:38.471Z,5.90
2019-04-01T18:19:08.698Z,5.97
2019-04-01T18:21:38.991Z,5.47
2019-04-01T18:24:09.177Z,5.60
2019-04-01T18:26:39.382Z,6.42
2019-04-01T18:29:10.038Z,6.58
2019-04-01T18:31:40.659Z,6.78
2019-04-01T18:34:10.945Z,6.60
2019-04-01T18:36:41.301Z,6.87
2019-04-01T18:39:11.493Z,9.60
2019-04-01T18:41:41.747Z,7.65
2019-04-01T18:44:12.138Z,7.08
2019-04-01T18:46:42.391Z,6.45
2019-04-01T18:49:12.690Z,6.15
2019-04-01T18:51:43.042Z,6.28
2019-04-01T18:54:13.225Z,6.00
2019-04-01T18:56:43.468Z,6.45
2019-04-01T18:59:13.809Z,6.37
2019-04-01T19:01:44.216Z,5.65
2019-04-01T19:04:14.710Z,6.15
2019-04-01T19:06:49.659Z,6.37
2019-04-01T19:09:18.681Z,5.67
2019-04-01T19:11:48.870Z,6.03
2019-04-01T19:14:19.223Z,6.25
2019-04-01T19:16:49.448Z,5.92
2019-04-01T19:19:19.672Z,5.25
2019-04-01T19:21:50.004Z,5.87
2019-04-01T19:24:20.445Z,6.40
2019-04-01T19:26:50.723Z,5.33
2019-04-01T19:29:20.973Z,6.60
2019-04-01T19:31:51.430Z,5.47
2019-04-01T19:34:23.349Z,5.85
2019-04-01T19:36:53.529Z,6.00
2019-04-01T19:39:23.779Z,5.90
2019-04-01T19:41:54.008Z,6.08
2019-04-01T19:44:24.213Z,7.25
2019-04-01T19:46:54.503Z,6.97
2019-04-01T19:49:24.748Z,5.62
2019-04-01T19:51:55.057Z,6.50
2019-04-01T19:54:31.178Z,6.40
2019-04-01T19:56:57.286Z,5.85
2019-04-01T19:59:27.517Z,6.37
2019-04-01T20:01:58.347Z,5.35
2019-04-01T20:04:28.861Z,6.15
2019-04-01T20:06:59.236Z,6.20
2019-04-01T20:09:29.524Z,4.92
2019-04-01T20:12:01.462Z,5.92
2019-04-01T20:14:31.828Z,6.15
2019-04-01T20:17:02.382Z,5.75
2019-04-01T20:19:33.187Z,6.47
2019-04-01T20:22:04.679Z,5.92
2019-04-01T20:24:35.881Z,5.72
2019-04-01T20:27:06.086Z,6.15
2019-04-01T20:29:36.379Z,6.35
2019-04-01T20:32:16.782Z,6.62
2019-04-01T20:34:38.497Z,6.60
2019-04-01T20:37:11.204Z,6.78
2019-04-01T20:39:41.460Z,5.80
2019-04-01T20:42:11.772Z,5.67
2019-04-01T20:44:42.131Z,5.85
2019-04-01T20:47:12.337Z,6.53
2019-04-01T20:49:42.559Z,5.62
2019-04-01T20:52:12.889Z,5.62
2019-04-01T20:54:45.190Z,5.62
2019-04-01T20:57:17.714Z,8.90
2019-04-01T20:59:48.139Z,6.80
2019-04-01T21:02:18.635Z,6.67
2019-04-01T21:04:48.838Z,6.37
2019-04-01T21:07:19.074Z,6.42
2019-04-01T21:09:49.363Z,6.65
2019-04-01T21:12:20.162Z,6.85
2019-04-01T21:14:55.942Z,6.45
2019-04-01T21:17:25.302Z,6.00
2019-04-01T21:19:55.502Z,6.17
2019-04-01T21:22:25.732Z,5.87
2019-04-01T21:24:57.576Z,5.72
2019-04-01T21:27:27.795Z,7.15
2019-04-01T21:29:58.144Z,7.45
2019-04-01T21:32:28.344Z,7.12
2019-04-01T21:34:58.608Z,7.25
2019-04-01T21:37:28.845Z,7.35
2019-04-01T21:39:59.496Z,6.50
2019-04-01T21:42:30.021Z,7.08
2019-04-01T21:45:01.807Z,6.58
2019-04-01T21:47:32.006Z,6.58
2019-04-01T21:50:02.593Z,6.22
2019-04-01T21:52:33.171Z,7.03
2019-04-01T21:55:07.732Z,6.92
2019-04-01T21:57:36.905Z,6.60
2019-04-01T22:00:14.045Z,7.65
2019-04-01T22:02:44.564Z,6.17
2019-04-01T22:05:17.224Z,6.35
2019-04-01T22:07:47.463Z,6.62
2019-04-01T22:10:17.711Z,5.90
2019-04-01T22:12:47.957Z,6.37
2019-04-01T22:15:18.870Z,5.00
2019-04-01T22:17:49.364Z,5.35
2019-04-01T22:20:19.560Z,5.47
2019-04-01T22:22:49.797Z,4.87
2019-04-01T22:25:20.144Z,4.78
2019-04-01T22:27:50.375Z,4.67
2019-04-01T22:30:20.605Z,5.78
2019-04-01T22:32:50.799Z,4.37
2019-04-01T22:35:21.119Z,6.45
2019-04-01T22:37:51.332Z,6.08
2019-04-01T22:40:21.624Z,5.75
2019-04-01T22:42:52.265Z,5.78
2019-04-01T22:45:24.037Z,5.92
2019-04-01T22:47:54.242Z,6.17
2019-04-01T22:50:24.472Z,7.00
2019-04-01T22:52:54.869Z,6.37
2019-04-01T22:55:25.135Z,5.45
2019-04-01T22:57:55.358Z,6.20
2019-04-01T23:00:26.405Z,6.60
2019-04-01T23:02:56.792Z,6.40
2019-04-01T23:05:27.064Z,5.75
2019-04-01T23:07:57.315Z,6.92
2019-04-01T23:10:27.637Z,7.12
2019-04-01T23:12:57.905Z,8.95
2019-04-01T23:15:28.106Z,9.75
2019-04-01T23:17:58.394Z,7.90
2019-04-01T23:20:28.617Z,5.60
2019-04-01T23:22:58.880Z,8.58
2019-04-01T23:25:29.106Z,6.42
2019-04-01T23:28:00.881Z,7.10
2019-04-01T23:30:32.847Z,5.62
2019-04-01T23:33:03.034Z,6.25
2019-04-01T23:35:33.261Z,5.42
2019-04-01T23:38:03.471Z,5.47
2019-04-01T23:40:33.810Z,5.15
2019-04-01T23:43:04.068Z,5.17
2019-04-01T23:45:34.346Z,3.92
2019-04-01T23:48:05.419Z,4.53
2019-04-01T23:50:35.619Z,4.58
2019-04-01T23:53:07.413Z,4.70
2019-04-01T23:55:39.174Z,4.33
2019-04-01T23:58:09.382Z,4.60
